Time;durP1;ratioP1;P1;durP2;ratioP2;P2;SDS_P1;SDS_P2;PMS_P1;PMS_P2;Temp;Humidity;BMP_temperature;BMP_pressure;BME280_temperature;BME280_humidity;BME280_pressure;Samples;Min_cycle;Max_cycle;Signal;HPM_P1;HPM_P2
2023/08/25 00:00:42;;;;;;;1.10;1.00;;;;;;;23.95;58.74;100047.81;4604729;27;20030;-65
2023/08/25 00:02:52;;;;;;;1.20;1.10;;;;;;;23.96;58.71;100049.44;4602938;27;20042;-65
2023/08/25 00:05:05;;;;;;;1.00;0.90;;;;;;;23.98;58.58;100063.47;4612118;27;20043;-64
2023/08/25 00:07:16;;;;;;;1.02;0.90;;;;;;;23.98;58.73;100063.47;4603863;27;20036;-65
2023/08/25 00:09:26;;;;;;;1.30;1.20;;;;;;;23.91;59.17;100044.09;4602887;27;20431;-64
2023/08/25 00:11:38;;;;;;;1.38;1.05;;;;;;;23.92;58.96;100037.09;4603750;27;20522;-65
2023/08/25 00:13:48;;;;;;;1.67;0.93;;;;;;;23.92;58.80;100028.44;4612838;27;20064;-64
2023/08/25 00:15:59;;;;;;;1.75;1.10;;;;;;;23.97;58.63;100038.78;4605108;27;20039;-64
2023/08/25 00:18:09;;;;;;;0.85;0.85;;;;;;;23.93;58.96;100027.19;4604425;27;20051;-64
2023/08/25 00:20:20;;;;;;;1.33;1.00;;;;;;;23.96;58.43;100037.91;4620261;27;20043;-66
2023/08/25 00:22:30;;;;;;;1.13;1.00;;;;;;;23.93;58.80;100026.38;4585618;27;20039;-64
2023/08/25 00:24:41;;;;;;;1.10;0.93;;;;;;;23.97;58.88;100033.00;4605021;27;20036;-64
2023/08/25 00:26:52;;;;;;;1.13;0.90;;;;;;;23.97;58.89;100027.25;4603973;27;20038;-64
2023/08/25 00:29:03;;;;;;;1.05;0.95;;;;;;;23.96;58.68;100020.63;4602814;27;20135;-65
2023/08/25 00:31:14;;;;;;;1.40;0.90;;;;;;;23.95;58.69;100007.44;4604255;27;20339;-64
2023/08/25 00:33:24;;;;;;;1.00;0.90;;;;;;;23.95;58.62;99995.06;4604079;27;20040;-65
2023/08/25 00:35:35;;;;;;;1.33;1.00;;;;;;;23.93;58.28;99981.06;4611899;27;20037;-65
2023/08/25 00:37:46;;;;;;;1.42;0.98;;;;;;;23.94;58.55;99988.50;4603834;27;20019;-65
2023/08/25 00:39:56;;;;;;;0.90;0.80;;;;;;;23.96;58.63;99986.03;4603728;27;20031;-65
2023/08/25 00:42:07;;;;;;;1.75;1.05;;;;;;;23.93;58.57;99975.31;4604978;27;20047;-65
2023/08/25 00:44:17;;;;;;;1.10;0.90;;;;;;;23.92;58.55;99964.19;4603631;27;20031;-65
2023/08/25 00:46:29;;;;;;;1.98;1.00;;;;;;;23.95;58.19;99969.97;4603483;27;20036;-64
2023/08/25 00:48:40;;;;;;;1.08;0.90;;;;;;;23.94;58.30;99964.59;4603023;27;20042;-65
2023/08/25 00:50:51;;;;;;;1.02;0.93;;;;;;;23.96;58.30;99965.03;4605555;27;20158;-65
2023/08/25 00:53:05;;;;;;;1.40;0.88;;;;;;;23.95;58.60;99955.56;4617025;27;20119;-65
2023/08/25 00:55:16;;;;;;;1.98;1.15;;;;;;;23.96;58.39;99956.38;4605922;27;20130;-65
2023/08/25 00:57:26;;;;;;;0.98;0.80;;;;;;;23.94;58.38;99947.31;4613498;27;20031;-65
2023/08/25 00:59:37;;;;;;;1.48;0.90;;;;;;;23.94;58.40;99953.91;4609386;27;20039;-65
2023/08/25 01:01:48;;;;;;;1.17;1.00;;;;;;;23.94;58.31;99939.50;4607537;27;20023;-65
2023/08/25 01:03:58;;;;;;;1.08;0.93;;;;;;;23.95;58.33;99944.03;4606730;27;20115;-64
2023/08/25 01:06:08;;;;;;;1.52;0.95;;;;;;;23.94;58.35;99936.63;4607358;27;20088;-65
2023/08/25 01:08:19;;;;;;;0.98;0.90;;;;;;;23.96;57.98;99931.25;4607067;27;20511;-65
2023/08/25 01:10:50;;;;;;;1.15;0.88;;;;;;;23.96;57.86;99928.38;4606515;27;20383;-65
2023/08/25 01:13:19;;;;;;;1.10;0.85;;;;;;;23.93;57.79;99923.41;4607106;27;20146;-65
2023/08/25 01:15:33;;;;;;;0.98;0.80;;;;;;;23.94;57.89;99918.50;4605266;27;20030;-64
2023/08/25 01:17:57;;;;;;;0.80;0.80;;;;;;;23.94;57.88;99919.31;4606758;27;20613;-65
2023/08/25 01:20:09;;;;;;;1.20;1.10;;;;;;;23.92;57.45;99912.28;4605947;27;20719;-64
2023/08/25 01:22:57;;;;;;;0.98;0.88;;;;;;;23.95;57.77;99918.09;4614502;27;20030;-65
2023/08/25 01:25:26;;;;;;;1.42;1.10;;;;;;;23.95;57.51;99928.78;4621998;27;20031;-65
2023/08/25 01:27:37;;;;;;;1.00;0.90;;;;;;;23.82;57.39;99904.47;4604358;27;20040;-64
2023/08/25 01:29:48;;;;;;;1.20;1.00;;;;;;;23.92;57.24;99920.94;4607052;27;20474;-65
2023/08/25 01:31:59;;;;;;;1.00;0.80;;;;;;;23.94;57.06;99925.09;4613085;27;20039;-65
2023/08/25 01:34:14;;;;;;;1.60;0.73;;;;;;;23.91;56.97;99914.38;4604853;27;20042;-65
2023/08/25 01:36:28;;;;;;;1.00;0.90;;;;;;;23.95;57.06;99920.13;4605400;27;20053;-65
2023/08/25 01:38:38;;;;;;;1.08;0.82;;;;;;;23.94;57.33;99913.56;4622435;27;20027;-65
2023/08/25 01:41:24;;;;;;;1.67;1.00;;;;;;;23.94;57.20;99919.31;4608127;27;20044;-65
2023/08/25 01:43:39;;;;;;;1.00;0.80;;;;;;;23.94;56.87;99925.09;4598055;27;20039;-64
2023/08/25 01:45:50;;;;;;;1.00;0.90;;;;;;;23.92;56.88;99910.25;4605839;27;20036;-65
2023/08/25 01:48:05;;;;;;;1.67;1.13;;;;;;;23.92;56.99;99904.47;4607008;27;20101;-65
2023/08/25 01:50:16;;;;;;;1.33;0.80;;;;;;;23.90;56.95;99904.06;4607627;27;20036;-65
2023/08/25 01:52:27;;;;;;;1.20;0.80;;;;;;;23.90;56.60;99900.34;4605805;27;20070;-64
2023/08/25 01:54:37;;;;;;;1.63;0.88;;;;;;;23.90;56.61;99906.09;4612875;27;20061;-64
2023/08/25 01:56:48;;;;;;;0.95;0.88;;;;;;;23.92;56.73;99910.25;4613525;27;20037;-64
2023/08/25 01:58:58;;;;;;;0.75;0.70;;;;;;;23.83;56.76;99898.28;4591932;27;20104;-65
2023/08/25 02:01:09;;;;;;;1.63;0.90;;;;;;;23.88;56.83;99909.41;4613054;27;20095;-65
2023/08/25 02:03:19;;;;;;;1.33;0.90;;;;;;;23.83;56.88;99903.22;4605346;27;20459;-63
2023/08/25 02:05:30;;;;;;;1.00;0.90;;;;;;;23.91;56.74;99914.38;4604623;27;20126;-62
2023/08/25 02:07:40;;;;;;;0.90;0.80;;;;;;;23.91;56.53;99914.38;4605868;27;20111;-62
2023/08/25 02:09:53;;;;;;;0.90;0.90;;;;;;;23.92;56.54;99920.94;4614553;27;20027;-62
2023/08/25 02:12:03;;;;;;;1.02;0.82;;;;;;;23.88;56.40;99905.72;4621182;27;20129;-64
2023/08/25 02:14:14;;;;;;;1.50;0.85;;;;;;;23.87;56.62;99902.00;4611007;27;20035;-64
2023/08/25 02:16:24;;;;;;;0.70;0.70;;;;;;;23.90;56.39;99903.22;4605796;27;20085;-64
2023/08/25 02:18:35;;;;;;;1.08;0.80;;;;;;;23.89;56.16;99905.31;4611106;27;20409;-64
2023/08/25 02:20:45;;;;;;;1.35;0.70;;;;;;;23.90;56.35;99900.34;4604635;27;20126;-64
2023/08/25 02:22:57;;;;;;;1.38;0.80;;;;;;;23.91;56.47;99899.13;4608930;27;20032;-65
2023/08/25 02:25:08;;;;;;;1.08;0.90;;;;;;;23.90;56.63;99898.28;4613759;27;20040;-64
2023/08/25 02:27:18;;;;;;;1.08;0.90;;;;;;;23.86;56.64;99890.88;4607883;27;20039;-64
2023/08/25 02:29:29;;;;;;;1.98;0.90;;;;;;;23.91;56.53;99899.13;4605737;27;20608;-64
2023/08/25 02:31:39;;;;;;;1.58;0.90;;;;;;;23.91;56.42;99908.63;4614079;27;20048;-64
2023/08/25 02:33:50;;;;;;;0.90;0.90;;;;;;;23.89;56.09;99904.47;4605953;27;20153;-64
2023/08/25 02:36:02;;;;;;;1.02;0.77;;;;;;;23.91;55.63;99907.78;4612143;27;20031;-64
2023/08/25 02:38:12;;;;;;;1.15;0.90;;;;;;;23.84;55.72;99897.03;4612445;27;20039;-64
2023/08/25 02:40:23;;;;;;;0.80;0.80;;;;;;;23.89;55.85;99911.06;4614682;27;20126;-64
2023/08/25 02:42:33;;;;;;;2.42;0.98;;;;;;;23.90;55.44;99911.88;4604307;27;20063;-64
2023/08/25 02:44:44;;;;;;;0.88;0.88;;;;;;;23.85;55.77;99909.41;4606502;27;20424;-64
2023/08/25 02:46:54;;;;;;;1.27;0.93;;;;;;;23.84;55.47;99919.25;4603694;27;20035;-64
2023/08/25 02:49:04;;;;;;;1.30;0.77;;;;;;;23.86;55.81;99916.81;4614142;27;20080;-64
2023/08/25 02:51:15;;;;;;;1.33;1.15;;;;;;;23.86;55.71;99922.56;4612004;27;20050;-64
2023/08/25 02:53:25;;;;;;;1.02;0.88;;;;;;;23.86;55.79;99923.41;4604230;27;20061;-64
2023/08/25 02:55:38;;;;;;;1.20;1.10;;;;;;;23.82;55.68;99915.97;4613207;27;20573;-65
2023/08/25 02:57:49;;;;;;;1.00;0.90;;;;;;;23.87;55.70;99918.44;4621371;27;20134;-64
2023/08/25 03:00:00;;;;;;;1.30;1.10;;;;;;;23.86;55.71;99917.66;4620727;27;20062;-64
2023/08/25 03:02:10;;;;;;;1.10;1.00;;;;;;;23.81;55.85;99909.38;4610963;27;20049;-64
2023/08/25 03:04:20;;;;;;;2.10;1.08;;;;;;;23.87;56.21;99913.53;4605420;27;20030;-64
2023/08/25 03:06:31;;;;;;;1.45;0.90;;;;;;;23.88;56.20;99920.94;4607076;27;20029;-64
2023/08/25 03:08:41;;;;;;;0.80;0.80;;;;;;;23.86;56.26;99920.53;4612603;27;20101;-64
2023/08/25 03:10:53;;;;;;;1.10;1.00;;;;;;;23.83;56.51;99921.34;4611745;27;20082;-64
2023/08/25 03:13:03;;;;;;;1.83;1.20;;;;;;;23.84;56.63;99919.25;4609170;27;20989;-64
2023/08/25 03:15:15;;;;;;;1.50;0.80;;;;;;;23.85;56.32;99921.75;4591003;27;20123;-64
2023/08/25 03:17:26;;;;;;;1.17;0.90;;;;;;;23.81;56.47;99903.63;4606390;27;20023;-64
2023/08/25 03:19:40;;;;;;;1.48;0.95;;;;;;;23.87;56.49;99912.69;4588687;27;20028;-64
2023/08/25 03:21:50;;;;;;;1.20;1.08;;;;;;;23.86;56.15;99905.28;4621127;27;20526;-64
2023/08/25 03:24:01;;;;;;;1.77;0.88;;;;;;;23.85;56.21;99915.97;4619508;27;20031;-64
2023/08/25 03:26:12;;;;;;;1.20;0.90;;;;;;;23.86;56.39;99914.75;4612506;27;20038;-65
2023/08/25 03:28:22;;;;;;;1.77;0.90;;;;;;;23.85;56.52;99910.22;4618640;27;20031;-65
2023/08/25 03:30:33;;;;;;;1.10;1.00;;;;;;;23.84;56.34;99910.63;4604667;27;20035;-65
2023/08/25 03:32:44;;;;;;;1.38;0.90;;;;;;;23.87;56.28;99913.53;4604010;27;20046;-64
2023/08/25 03:34:54;;;;;;;0.80;0.80;;;;;;;23.86;56.53;99911.88;4606983;27;20464;-64
2023/08/25 03:37:05;;;;;;;1.20;1.10;;;;;;;23.85;55.97;99907.34;4609693;27;20372;-64
2023/08/25 03:39:17;;;;;;;1.15;1.00;;;;;;;23.85;56.20;99918.84;4603832;27;20105;-64
2023/08/25 03:41:27;;;;;;;1.13;0.90;;;;;;;23.80;56.10;99918.44;4605280;27;20095;-65
2023/08/25 03:43:37;;;;;;;1.85;1.02;;;;;;;23.84;56.10;99919.25;4613277;27;20039;-64
2023/08/25 03:45:48;;;;;;;1.33;1.05;;;;;;;23.87;56.15;99924.22;4608918;27;20071;-64
2023/08/25 03:48:00;;;;;;;1.15;1.00;;;;;;;23.87;56.35;99912.69;4619983;27;20026;-64
2023/08/25 03:50:10;;;;;;;1.05;0.80;;;;;;;23.84;56.19;99913.50;4620229;27;20901;-65
2023/08/25 03:52:22;;;;;;;1.60;1.40;;;;;;;23.83;56.25;99906.94;4613916;27;20126;-64
2023/08/25 03:54:32;;;;;;;1.58;1.00;;;;;;;23.86;55.82;99911.88;4604985;27;20030;-64
2023/08/25 03:56:43;;;;;;;2.03;1.08;;;;;;;23.84;55.75;99901.97;4604659;27;20550;-65
2023/08/25 03:58:54;;;;;;;0.90;0.90;;;;;;;23.80;55.52;99901.94;4604510;27;20902;-64
2023/08/25 04:01:05;;;;;;;1.10;1.00;;;;;;;23.85;55.57;99904.44;4605028;27;20042;-64
2023/08/25 04:03:16;;;;;;;1.17;0.90;;;;;;;23.82;55.65;99899.50;4603917;27;20043;-64
2023/08/25 04:05:28;;;;;;;1.08;0.90;;;;;;;23.81;55.57;99897.84;4612804;27;20115;-64
2023/08/25 04:07:38;;;;;;;0.98;0.80;;;;;;;23.83;55.55;99898.28;4604551;27;20035;-65
2023/08/25 04:09:50;;;;;;;1.75;0.90;;;;;;;23.84;55.66;99907.75;4608974;27;20047;-64
2023/08/25 04:12:01;;;;;;;1.20;0.90;;;;;;;23.85;55.78;99918.84;4603877;27;20040;-64
2023/08/25 04:14:11;;;;;;;1.30;1.20;;;;;;;23.82;55.73;99911.03;4614205;27;20050;-64
2023/08/25 04:16:21;;;;;;;1.00;0.80;;;;;;;23.84;55.51;99910.63;4605815;27;20084;-64
2023/08/25 04:18:32;;;;;;;0.80;0.80;;;;;;;23.82;55.49;99908.16;4590099;27;20035;-64
2023/08/25 04:20:42;;;;;;;1.35;0.98;;;;;;;23.80;55.05;99907.72;4620517;27;20065;-64
2023/08/25 04:22:53;;;;;;;0.82;0.82;;;;;;;23.82;55.17;99910.22;4603473;27;20309;-64
2023/08/25 04:25:04;;;;;;;1.00;0.85;;;;;;;23.82;54.94;99902.38;4603824;27;20039;-64
2023/08/25 04:27:15;;;;;;;2.08;0.80;;;;;;;23.83;55.30;99915.56;4600722;27;20066;-65
2023/08/25 04:29:25;;;;;;;0.93;0.80;;;;;;;23.80;55.30;99901.94;4588298;27;20718;-64
2023/08/25 04:31:36;;;;;;;0.90;0.80;;;;;;;23.79;55.15;99896.59;4619150;27;20073;-64
2023/08/25 04:33:48;;;;;;;0.90;0.90;;;;;;;23.79;55.31;99893.72;4610561;27;20038;-64
2023/08/25 04:35:58;;;;;;;1.30;1.10;;;;;;;23.79;55.27;99894.56;4608619;27;21015;-64
2023/08/25 04:38:08;;;;;;;0.82;0.82;;;;;;;23.78;55.56;99900.72;4606150;27;20057;-64
2023/08/25 04:40:20;;;;;;;1.88;1.00;;;;;;;23.82;55.43;99905.25;4617940;27;20590;-64
2023/08/25 04:42:30;;;;;;;1.52;0.90;;;;;;;23.80;55.60;99890.44;4603910;27;20035;-64
2023/08/25 04:44:41;;;;;;;1.00;0.90;;;;;;;23.81;55.68;99897.84;4609162;27;20120;-64
2023/08/25 04:46:52;;;;;;;1.17;1.00;;;;;;;23.83;55.89;99901.16;4603597;27;20031;-65
2023/08/25 04:49:03;;;;;;;1.13;1.02;;;;;;;23.81;55.73;99892.09;4604205;27;20024;-64
2023/08/25 04:51:13;;;;;;;1.05;0.95;;;;;;;23.78;55.97;99890.03;4608842;27;20419;-66
2023/08/25 04:53:24;;;;;;;0.80;0.80;;;;;;;23.81;55.89;99897.84;4611254;27;20050;-65
2023/08/25 04:55:34;;;;;;;1.10;1.00;;;;;;;23.73;55.44;99883.81;4612002;27;20498;-64
2023/08/25 04:57:45;;;;;;;1.00;0.98;;;;;;;23.81;55.93;99897.84;4600620;27;20043;-65
2023/08/25 04:59:56;;;;;;;1.48;1.00;;;;;;;23.82;55.98;99899.50;4601954;27;20039;-64
2023/08/25 05:02:07;;;;;;;1.58;0.95;;;;;;;23.80;55.85;99890.44;4607706;27;20036;-64
2023/08/25 05:04:18;;;;;;;1.20;1.10;;;;;;;23.82;55.74;99895.81;4611792;27;20031;-64
2023/08/25 05:06:29;;;;;;;1.02;0.90;;;;;;;23.80;55.85;99892.50;4609686;27;20360;-64
2023/08/25 05:08:40;;;;;;;0.80;0.80;;;;;;;23.83;55.83;99900.34;4599942;27;20037;-64
2023/08/25 05:10:51;;;;;;;1.23;1.00;;;;;;;23.82;56.05;99898.69;4611134;27;20843;-64
2023/08/25 05:13:01;;;;;;;1.10;1.00;;;;;;;23.79;56.17;99891.66;4604091;27;20039;-64
2023/08/25 05:15:12;;;;;;;1.10;1.00;;;;;;;23.81;55.89;99909.38;4612535;27;20032;-64
2023/08/25 05:17:23;;;;;;;1.50;0.98;;;;;;;23.79;55.87;99899.47;4591545;27;20023;-64
2023/08/25 05:19:34;;;;;;;1.42;1.13;;;;;;;23.77;56.22;99893.31;4607344;27;20032;-64
2023/08/25 05:21:45;;;;;;;1.10;1.00;;;;;;;23.76;56.03;99895.38;4606583;27;20027;-64
2023/08/25 05:24:18;;;;;;;1.35;1.00;;;;;;;23.82;56.10;99913.91;4612362;27;20035;-67
2023/08/25 05:26:28;;;;;;;1.50;0.95;;;;;;;23.81;56.22;99917.19;4604172;27;20750;-64
2023/08/25 05:28:45;;;;;;;1.33;1.02;;;;;;;23.80;56.15;99916.34;4588508;27;20028;-64
2023/08/25 05:30:55;;;;;;;1.27;0.98;;;;;;;23.81;56.33;99914.31;4603035;27;20425;-64
2023/08/25 05:33:18;;;;;;;1.20;1.00;;;;;;;23.80;56.55;99913.47;4606677;27;20038;-64
2023/08/25 05:35:46;;;;;;;1.30;1.08;;;;;;;23.77;56.43;99905.66;4612973;27;20035;-64
2023/08/25 05:37:57;;;;;;;1.20;1.10;;;;;;;23.79;56.55;99919.66;4614329;27;20024;-64
2023/08/25 05:40:08;;;;;;;1.30;0.95;;;;;;;23.80;56.33;99925.00;4605712;27;20027;-65
2023/08/25 05:42:21;;;;;;;1.52;1.20;;;;;;;23.81;56.35;99929.56;4614900;27;20866;-64
2023/08/25 05:44:31;;;;;;;1.15;0.98;;;;;;;23.79;56.88;99922.53;4615716;27;20064;-64
2023/08/25 05:46:42;;;;;;;1.85;1.00;;;;;;;23.79;56.85;99919.66;4621485;27;20047;-64
2023/08/25 05:48:52;;;;;;;1.20;1.00;;;;;;;23.76;56.74;99909.78;4606223;27;20023;-64
2023/08/25 05:51:02;;;;;;;1.20;1.10;;;;;;;23.79;56.89;99905.25;4612392;27;20063;-64
2023/08/25 05:53:13;;;;;;;1.23;1.10;;;;;;;23.77;57.32;99902.75;4605094;27;20043;-64
2023/08/25 05:55:24;;;;;;;1.42;1.00;;;;;;;23.79;57.43;99903.19;4606898;27;20063;-64
2023/08/25 05:57:34;;;;;;;1.40;1.20;;;;;;;23.80;57.27;99904.84;4606148;27;20059;-64
2023/08/25 05:59:44;;;;;;;1.10;1.00;;;;;;;23.75;57.62;99893.72;4605172;27;20403;-64
2023/08/25 06:01:55;;;;;;;1.15;1.05;;;;;;;23.79;57.34;99902.34;4608704;27;20096;-64
2023/08/25 06:04:05;;;;;;;1.63;1.30;;;;;;;23.73;57.31;99883.81;4605255;27;20423;-64
2023/08/25 06:06:16;;;;;;;2.78;1.30;;;;;;;23.78;57.24;99887.16;4614396;27;20848;-64
2023/08/25 06:08:27;;;;;;;1.30;1.20;;;;;;;23.73;57.30;99872.28;4605683;27;20043;-64
2023/08/25 06:10:37;;;;;;;1.90;1.30;;;;;;;23.78;56.88;99880.53;4605429;27;20038;-64
2023/08/25 06:12:48;;;;;;;1.70;1.20;;;;;;;23.78;56.64;99881.38;4605637;27;20043;-64
2023/08/25 06:14:58;;;;;;;2.20;1.30;;;;;;;23.80;57.62;99896.19;4607631;27;20927;-64
2023/08/25 06:17:10;;;;;;;0.98;0.88;;;;;;;23.81;58.39;99889.22;4604671;27;20061;-64
2023/08/25 06:19:20;;;;;;;1.33;1.20;;;;;;;23.76;58.92;99880.97;4605406;27;20046;-64
2023/08/25 06:21:31;;;;;;;1.52;1.05;;;;;;;23.79;58.75;99887.94;4605874;27;20558;-64
2023/08/25 06:23:41;;;;;;;1.55;1.10;;;;;;;23.78;58.76;99881.38;4606556;27;20035;-64
2023/08/25 06:25:52;;;;;;;1.63;1.10;;;;;;;23.77;58.71;99887.56;4606234;27;20067;-64
2023/08/25 06:28:02;;;;;;;1.17;1.08;;;;;;;23.78;58.52;99884.25;4605303;27;20073;-64
2023/08/25 06:30:13;;;;;;;2.40;1.17;;;;;;;23.81;58.58;99892.09;4603772;27;20032;-64
2023/08/25 06:32:23;;;;;;;1.90;0.90;;;;;;;23.78;58.81;99884.25;4606574;27;20043;-64
2023/08/25 06:34:34;;;;;;;1.45;1.10;;;;;;;23.82;58.74;99881.41;4605419;27;20031;-65
2023/08/25 06:36:44;;;;;;;1.33;1.10;;;;;;;23.82;58.88;99870.69;4605021;27;20408;-64
2023/08/25 06:38:55;;;;;;;1.75;1.00;;;;;;;23.80;59.01;99850.06;4609413;27;20177;-64
2023/08/25 06:41:06;;;;;;;1.40;1.00;;;;;;;23.79;58.93;99839.78;4603743;27;20035;-64
2023/08/25 06:43:16;;;;;;;1.45;1.20;;;;;;;23.81;59.22;99850.91;4605319;27;20113;-64
2023/08/25 06:45:27;;;;;;;1.10;1.00;;;;;;;23.82;59.55;99859.16;4605396;27;20345;-64
2023/08/25 06:47:38;;;;;;;1.40;1.10;;;;;;;23.83;59.18;99866.59;4604011;27;20027;-64
2023/08/25 06:49:49;;;;;;;1.10;1.00;;;;;;;23.79;59.30;99859.97;4605956;27;20474;-64
2023/08/25 06:51:59;;;;;;;2.03;1.20;;;;;;;23.85;59.33;99869.84;4613028;27;20055;-64
2023/08/25 06:54:10;;;;;;;1.13;0.85;;;;;;;23.82;59.55;99864.91;4605262;27;20092;-64
2023/08/25 06:56:20;;;;;;;2.03;1.27;;;;;;;23.82;59.86;99859.16;4604658;27;20035;-64
2023/08/25 06:58:30;;;;;;;1.60;1.13;;;;;;;23.81;59.67;99862.44;4605310;27;20039;-64
2023/08/25 07:00:41;;;;;;;1.27;1.10;;;;;;;23.82;59.78;99864.91;4604067;27;20032;-64
2023/08/25 07:02:52;;;;;;;1.20;1.10;;;;;;;23.80;59.85;99861.59;4613096;27;20051;-64
2023/08/25 07:05:02;;;;;;;1.10;1.00;;;;;;;23.80;60.00;99872.31;4604692;27;21133;-64
2023/08/25 07:07:13;;;;;;;1.63;1.20;;;;;;;23.80;60.15;99855.84;4604272;27;20034;-64
2023/08/25 07:09:23;;;;;;;1.80;1.30;;;;;;;23.81;59.74;99866.16;4604620;27;20445;-64
2023/08/25 07:11:34;;;;;;;1.10;1.00;;;;;;;23.85;59.86;99871.94;4605129;27;20481;-64
2023/08/25 07:13:44;;;;;;;1.00;0.90;;;;;;;23.82;60.47;99873.56;4604505;27;20148;-64
2023/08/25 07:15:54;;;;;;;1.92;1.70;;;;;;;23.85;60.27;99880.59;4606485;27;20028;-65
2023/08/25 07:18:05;;;;;;;1.25;1.15;;;;;;;23.83;60.38;99883.03;4604621;27;20091;-64
2023/08/25 07:20:15;;;;;;;1.73;1.30;;;;;;;23.82;60.84;99881.41;4605724;27;20436;-64
2023/08/25 07:22:26;;;;;;;1.77;1.33;;;;;;;23.84;60.64;99878.91;4603071;27;20043;-64
2023/08/25 07:24:36;;;;;;;2.15;1.52;;;;;;;23.84;60.39;99876.03;4604325;27;20119;-64
2023/08/25 07:26:47;;;;;;;2.28;1.80;;;;;;;23.79;61.48;99867.78;4603860;27;20039;-65
2023/08/25 07:28:57;;;;;;;2.00;1.50;;;;;;;23.80;61.45;99872.31;4603647;27;20027;-64
2023/08/25 07:31:07;;;;;;;2.55;2.00;;;;;;;23.85;61.27;99887.16;4605504;27;20035;-64
2023/08/25 07:33:18;;;;;;;2.75;1.77;;;;;;;23.85;61.26;99883.47;4608691;27;20078;-64
2023/08/25 07:35:28;;;;;;;2.03;1.70;;;;;;;23.82;61.18;99875.63;4603936;27;20032;-65
2023/08/25 07:37:41;;;;;;;1.88;1.60;;;;;;;23.84;61.38;99885.50;4604748;27;20028;-65
2023/08/25 07:39:53;;;;;;;1.98;1.67;;;;;;;23.83;61.60;99878.13;4604233;27;20603;-65
2023/08/25 07:42:04;;;;;;;1.73;1.50;;;;;;;23.81;61.05;99873.97;4603735;27;20031;-64
2023/08/25 07:44:14;;;;;;;1.80;1.40;;;;;;;23.85;60.92;99874.81;4605239;27;20024;-64
2023/08/25 07:46:25;;;;;;;2.35;1.60;;;;;;;23.81;61.27;99873.97;4585619;27;20442;-64
2023/08/25 07:48:35;;;;;;;2.13;1.48;;;;;;;23.82;60.82;99870.69;4606649;27;20041;-64
2023/08/25 07:50:46;;;;;;;1.70;1.50;;;;;;;23.82;60.41;99885.09;4604149;27;20034;-64
2023/08/25 07:52:57;;;;;;;1.83;1.60;;;;;;;23.80;61.05;99878.91;4605025;27;20044;-64
2023/08/25 07:55:08;;;;;;;1.40;1.30;;;;;;;23.81;61.22;99877.69;4603659;27;20119;-65
2023/08/25 07:57:19;;;;;;;1.83;1.25;;;;;;;23.83;61.05;99889.63;4605587;27;20089;-65
2023/08/25 07:59:29;;;;;;;2.92;1.40;;;;;;;23.83;61.40;99889.63;4601299;27;20038;-65
2023/08/25 08:01:40;;;;;;;2.20;1.50;;;;;;;23.82;61.18;99887.97;4605480;27;20058;-65
2023/08/25 08:03:51;;;;;;;2.17;1.48;;;;;;;23.83;60.83;99889.63;4603204;27;20879;-65
2023/08/25 08:06:01;;;;;;;2.05;1.50;;;;;;;23.67;61.07;99866.13;4603387;27;20066;-65
2023/08/25 08:08:12;;;;;;;1.30;1.17;;;;;;;23.71;60.92;99881.34;4605071;27;20392;-65
2023/08/25 08:10:22;;;;;;;2.70;1.50;;;;;;;23.83;61.34;99915.56;4603119;27;20043;-66
2023/08/25 08:12:32;;;;;;;2.00;1.30;;;;;;;23.77;61.06;99914.28;4604934;27;20453;-65
2023/08/25 08:14:43;;;;;;;1.83;1.20;;;;;;;23.84;61.11;99919.25;4603389;27;20023;-65
2023/08/25 08:16:53;;;;;;;2.22;1.38;;;;;;;23.84;61.71;99913.50;4604189;27;20035;-65
2023/08/25 08:19:05;;;;;;;1.67;1.45;;;;;;;23.81;61.77;99899.91;4603544;27;20110;-65
2023/08/25 08:21:15;;;;;;;1.83;1.35;;;;;;;23.86;61.88;99899.50;4604156;27;20805;-65
2023/08/25 08:23:26;;;;;;;2.08;1.48;;;;;;;23.85;61.85;99892.91;4608081;27;20075;-65
2023/08/25 08:25:36;;;;;;;2.33;1.40;;;;;;;23.86;61.33;99873.56;4604060;27;20058;-65
2023/08/25 08:27:47;;;;;;;1.30;1.20;;;;;;;23.84;62.00;99884.69;4601987;27;20042;-66
2023/08/25 08:29:57;;;;;;;2.05;1.30;;;;;;;23.78;62.60;99875.63;4604515;27;20039;-67
2023/08/25 08:32:08;;;;;;;1.30;1.20;;;;;;;23.86;62.98;99877.28;4603215;27;20100;-65
2023/08/25 08:34:19;;;;;;;1.90;1.30;;;;;;;23.85;63.52;99887.16;4605026;27;20023;-67
2023/08/25 08:36:29;;;;;;;1.90;1.15;;;;;;;23.86;63.91;99911.88;4603709;27;20035;-67
2023/08/25 08:38:39;;;;;;;1.77;1.20;;;;;;;23.84;64.00;99934.50;4605040;27;20498;-66
2023/08/25 08:40:50;;;;;;;1.52;1.20;;;;;;;23.85;63.66;99956.31;4605114;27;20351;-66
2023/08/25 08:43:04;;;;;;;1.48;1.20;;;;;;;23.85;63.73;99950.56;4603353;27;20027;-66
2023/08/25 08:45:17;;;;;;;1.67;1.30;;;;;;;23.87;63.76;99948.09;4603009;27;20127;-67
2023/08/25 08:47:28;;;;;;;1.42;1.20;;;;;;;23.85;64.43;99972.81;4604030;27;20035;-66
2023/08/25 08:49:40;;;;;;;2.25;1.40;;;;;;;23.88;65.01;100013.16;4602976;27;20031;-66
2023/08/25 08:51:51;;;;;;;1.70;1.40;;;;;;;23.88;65.03;100030.44;4603617;27;20031;-65
2023/08/25 08:54:04;;;;;;;1.95;1.30;;;;;;;23.89;65.21;100031.28;4603279;27;20602;-66
2023/08/25 08:56:16;;;;;;;1.70;1.20;;;;;;;23.92;65.24;100007.41;4602593;27;20036;-65
2023/08/25 08:58:27;;;;;;;1.25;1.13;;;;;;;23.92;65.22;99995.88;4603056;27;20486;-65
2023/08/25 09:00:40;;;;;;;1.77;1.45;;;;;;;23.91;64.92;99995.09;4604150;27;20104;-65
2023/08/25 09:02:53;;;;;;;2.22;1.40;;;;;;;23.93;64.80;100009.91;4603897;27;20032;-65
2023/08/25 09:05:05;;;;;;;2.22;1.30;;;;;;;23.94;65.16;100020.22;4601232;27;20032;-66
2023/08/25 09:07:18;;;;;;;1.58;1.40;;;;;;;23.93;65.18;100021.44;4602339;27;20114;-65
2023/08/25 09:09:28;;;;;;;2.15;1.40;;;;;;;23.93;65.49;100032.97;4604225;27;20039;-66
2023/08/25 09:11:39;;;;;;;1.98;1.20;;;;;;;23.94;65.50;100034.63;4605255;27;20050;-66
2023/08/25 09:13:56;;;;;;;1.60;1.40;;;;;;;23.96;65.67;100011.97;4605880;27;20038;-66
2023/08/25 09:16:14;;;;;;;1.73;1.35;;;;;;;23.96;65.90;99994.66;4607490;27;20038;-65
2023/08/25 09:18:33;;;;;;;1.45;1.30;;;;;;;23.97;65.56;99984.00;4606139;27;20075;-66
2023/08/25 09:20:44;;;;;;;1.60;1.40;;;;;;;23.94;65.63;99991.38;4606053;27;20035;-65
2023/08/25 09:22:55;;;;;;;2.17;1.38;;;;;;;23.99;66.13;99993.09;4615157;27;20031;-66
2023/08/25 09:25:06;;;;;;;1.75;1.50;;;;;;;24.02;66.35;99996.00;4607073;27;20043;-66
2023/08/25 09:27:24;;;;;;;2.30;1.42;;;;;;;24.02;66.12;99992.28;4606130;27;20027;-67
2023/08/25 09:29:41;;;;;;;1.20;1.10;;;;;;;24.05;65.86;100000.09;4603630;27;20587;-65
2023/08/25 09:31:52;;;;;;;1.55;1.30;;;;;;;24.03;65.92;99983.22;4597128;27;20888;-65
2023/08/25 09:34:05;;;;;;;1.73;1.30;;;;;;;24.04;66.38;99979.09;4606475;27;20785;-65
2023/08/25 09:36:19;;;;;;;1.85;1.35;;;;;;;24.03;66.18;99991.03;4605819;27;20588;-65
2023/08/25 09:38:32;;;;;;;2.13;1.60;;;;;;;24.01;66.98;99985.66;4622835;27;20043;-66
2023/08/25 09:40:46;;;;;;;2.17;1.60;;;;;;;23.99;66.63;99959.28;4588489;27;20091;-65
2023/08/25 09:43:01;;;;;;;2.05;1.50;;;;;;;24.00;66.77;99942.84;4616309;27;20042;-65
2023/08/25 09:45:12;;;;;;;1.10;1.00;;;;;;;23.98;67.57;99940.34;4607207;27;20093;-65
2023/08/25 09:47:22;;;;;;;1.77;1.30;;;;;;;24.00;66.39;99971.66;4614715;27;20542;-65
2023/08/25 09:49:40;;;;;;;1.45;1.35;;;;;;;24.00;66.55;100000.50;4606556;27;20040;-67
2023/08/25 09:51:52;;;;;;;2.00;1.80;;;;;;;23.98;66.53;100008.72;4604374;27;20067;-64
2023/08/25 09:54:08;;;;;;;2.00;1.75;;;;;;;24.00;67.02;100012.03;4606219;27;20040;-65
2023/08/25 09:56:19;;;;;;;2.20;1.90;;;;;;;23.98;66.60;100000.06;4613987;27;21252;-65
2023/08/25 09:58:30;;;;;;;2.33;1.73;;;;;;;24.00;66.71;99992.69;4606258;27;20259;-65
2023/08/25 10:00:40;;;;;;;1.98;1.75;;;;;;;23.95;66.16;99987.25;4604376;27;20183;-66
2023/08/25 10:02:53;;;;;;;1.92;1.73;;;;;;;24.00;65.95;99991.84;4596858;27;20035;-65
2023/08/25 10:05:04;;;;;;;2.22;1.75;;;;;;;24.00;65.70;99981.16;4604919;27;20043;-65
2023/08/25 10:07:15;;;;;;;2.03;1.80;;;;;;;24.00;65.90;99963.84;4605630;27;20558;-64
2023/08/25 10:09:26;;;;;;;2.08;1.75;;;;;;;23.99;65.73;99964.25;4613356;27;20142;-66
2023/08/25 10:11:42;;;;;;;2.35;1.80;;;;;;;24.00;65.66;99978.25;4608217;27;20113;-66
2023/08/25 10:13:55;;;;;;;2.65;1.70;;;;;;;23.97;65.90;99976.19;4604050;27;20142;-65
2023/08/25 10:16:10;;;;;;;2.20;1.75;;;;;;;23.93;65.89;99949.38;4614227;27;20030;-65
2023/08/25 10:18:24;;;;;;;1.52;1.40;;;;;;;23.91;66.00;99933.72;4590021;27;20560;-65